createdAt,value
2022-08-02T00:00:12.794Z,963.58
2022-08-02T00:01:16.895Z,963.57
2022-08-02T00:02:13.088Z,963.56
2022-08-02T00:04:12.882Z,963.52
2022-08-02T00:06:12.800Z,963.55
2022-08-02T00:07:12.738Z,963.51
2022-08-02T00:10:13.932Z,963.48
2022-08-02T00:11:12.851Z,963.5
2022-08-02T00:12:12.950Z,963.52
2022-08-02T00:13:12.879Z,963.46
2022-08-02T00:14:12.846Z,963.45
2022-08-02T00:15:15.872Z,963.43
2022-08-02T00:16:16.802Z,963.45
2022-08-02T00:17:13.169Z,963.47
2022-08-02T00:18:12.924Z,963.45
2022-08-02T00:19:12.771Z,963.44
2022-08-02T00:20:12.860Z,963.45
2022-08-02T00:21:16.993Z,963.46
2022-08-02T00:22:13.321Z,963.47
2022-08-02T00:23:12.859Z,963.42
2022-08-02T00:24:29.703Z,963.48
2022-08-02T00:25:12.899Z,963.47
2022-08-02T00:26:12.790Z,963.51
2022-08-02T00:27:12.930Z,963.48
2022-08-02T00:28:12.905Z,963.52
2022-08-02T00:29:12.880Z,963.47
2022-08-02T00:30:12.932Z,963.48
2022-08-02T00:31:12.909Z,963.5
2022-08-02T00:32:13.138Z,963.49
2022-08-02T00:33:12.949Z,963.54
2022-08-02T00:34:28.242Z,963.53
2022-08-02T00:35:12.893Z,963.51
2022-08-02T00:37:12.921Z,963.54
2022-08-02T00:38:12.881Z,963.51
2022-08-02T00:39:33.425Z,963.52
2022-08-02T00:40:12.918Z,963.5
2022-08-02T00:41:13.109Z,963.48
2022-08-02T00:42:13.230Z,963.46
2022-08-02T00:43:12.831Z,963.47
2022-08-02T00:44:12.997Z,963.45
2022-08-02T00:46:12.925Z,963.42
2022-08-02T00:47:13.211Z,963.43
2022-08-02T00:48:13.013Z,963.36
2022-08-02T00:49:12.965Z,963.32
2022-08-02T00:50:12.855Z,963.31
2022-08-02T00:51:12.965Z,963.25
2022-08-02T00:53:12.840Z,963.26
2022-08-02T00:54:12.866Z,963.27
2022-08-02T00:55:12.943Z,963.28
2022-08-02T00:57:12.973Z,963.22
2022-08-02T00:58:12.942Z,963.23
2022-08-02T00:59:13.126Z,963.24
2022-08-02T01:00:12.979Z,963.19
2022-08-02T01:01:12.988Z,963.17
2022-08-02T01:02:13.228Z,963.15
2022-08-02T01:03:12.991Z,963.16
2022-08-02T01:04:12.952Z,963.17
2022-08-02T01:06:12.976Z,963.18
2022-08-02T01:07:13.859Z,963.15
2022-08-02T01:08:12.888Z,963.18
2022-08-02T01:09:12.988Z,963.15
2022-08-02T01:10:12.962Z,963.14
2022-08-02T01:11:13.043Z,963.15
2022-08-02T01:12:13.437Z,963.11
2022-08-02T01:13:12.961Z,963.09
2022-08-02T01:14:13.863Z,963.06
2022-08-02T01:15:12.907Z,963.08
2022-08-02T01:16:12.987Z,963.05
2022-08-02T01:18:12.918Z,963.02
2022-08-02T01:20:13.044Z,963.01
2022-08-02T01:21:13.008Z,963.02
2022-08-02T01:22:13.521Z,963.05
2022-08-02T01:23:12.946Z,963.07
2022-08-02T01:24:13.006Z,963.08
2022-08-02T01:25:12.935Z,963.07
2022-08-02T01:26:12.948Z,963.1
2022-08-02T01:29:13.112Z,963.09
2022-08-02T01:31:14.501Z,963.08
2022-08-02T01:32:13.244Z,963.1
2022-08-02T01:33:12.955Z,963.08
2022-08-02T01:34:13.100Z,963.12
2022-08-02T01:35:12.967Z,963.04
2022-08-02T01:36:12.966Z,963.03
2022-08-02T01:37:13.197Z,963.07
2022-08-02T01:38:12.968Z,963.1
2022-08-02T01:40:13.107Z,963.11
2022-08-02T01:41:13.071Z,963.12
2022-08-02T01:42:13.306Z,963.14
2022-08-02T01:43:13.102Z,963.13
2022-08-02T01:44:13.090Z,963.1
2022-08-02T01:45:13.158Z,963.12
2022-08-02T01:46:13.120Z,963.13
2022-08-02T01:48:13.049Z,963.08
2022-08-02T01:50:13.011Z,963.06
2022-08-02T01:51:13.072Z,963.03
2022-08-02T01:52:13.451Z,963.01
2022-08-02T01:53:13.004Z,962.98
2022-08-02T01:55:13.726Z,963
2022-08-02T01:57:14.246Z,962.99
2022-08-02T01:58:13.126Z,963.01
2022-08-02T01:59:13.093Z,963.03
2022-08-02T02:02:13.385Z,963.06
2022-08-02T02:03:13.164Z,963.05
2022-08-02T02:04:13.029Z,963.07
2022-08-02T02:05:13.106Z,963.06
2022-08-02T02:06:13.102Z,963.09
2022-08-02T02:07:13.138Z,963.05
2022-08-02T02:08:13.216Z,963.07
2022-08-02T02:10:13.140Z,963.08
2022-08-02T02:12:03.649Z,963.09
2022-08-02T02:12:13.972Z,963.11
2022-08-02T02:13:13.285Z,963.12
2022-08-02T02:14:13.049Z,963.1
2022-08-02T02:15:13.119Z,963.09
2022-08-02T02:17:50.283Z,963.08
2022-08-02T02:18:13.808Z,963.06
2022-08-02T02:19:13.156Z,963.07
2022-08-02T02:20:13.219Z,963.06
2022-08-02T02:21:13.082Z,963.03
2022-08-02T02:22:13.433Z,963.04
2022-08-02T02:23:13.328Z,962.99
2022-08-02T02:24:13.207Z,963
2022-08-02T02:26:13.126Z,962.98
2022-08-02T02:27:13.092Z,963
2022-08-02T02:29:13.240Z,962.98
2022-08-02T02:30:13.088Z,962.99
2022-08-02T02:31:13.292Z,962.95
2022-08-02T02:32:14.385Z,962.97
2022-08-02T02:33:13.209Z,962.96
2022-08-02T02:34:13.176Z,962.95
2022-08-02T02:35:13.253Z,962.92
2022-08-02T02:36:13.207Z,962.9
2022-08-02T02:37:13.175Z,962.88
2022-08-02T02:39:13.671Z,962.89
2022-08-02T02:40:13.191Z,962.88
2022-08-02T02:41:13.259Z,962.89
2022-08-02T02:42:13.494Z,962.87
2022-08-02T02:43:13.281Z,962.86
2022-08-02T02:44:14.590Z,962.88
2022-08-02T02:45:13.224Z,962.86
2022-08-02T02:46:13.192Z,962.87
2022-08-02T02:47:13.263Z,962.89
2022-08-02T02:48:13.228Z,962.88
2022-08-02T02:49:13.376Z,962.86
2022-08-02T02:50:13.186Z,962.87
2022-08-02T02:51:13.761Z,962.86
2022-08-02T02:52:14.499Z,962.84
2022-08-02T02:53:13.266Z,962.86
2022-08-02T02:54:26.863Z,962.85
2022-08-02T02:55:13.314Z,962.84
2022-08-02T02:56:13.276Z,962.8
2022-08-02T02:57:13.155Z,962.81
2022-08-02T02:59:13.177Z,962.83
2022-08-02T03:00:13.166Z,962.84
2022-08-02T03:02:13.471Z,962.79
2022-08-02T03:03:13.175Z,962.82
2022-08-02T03:04:14.579Z,962.81
2022-08-02T03:05:13.333Z,962.82
2022-08-02T03:06:14.733Z,962.83
2022-08-02T03:08:13.460Z,962.81
2022-08-02T03:09:13.266Z,962.76
2022-08-02T03:11:13.301Z,962.77
2022-08-02T03:12:13.542Z,962.75
2022-08-02T03:13:13.228Z,962.71
2022-08-02T03:14:13.306Z,962.73
2022-08-02T03:16:13.341Z,962.72
2022-08-02T03:17:13.299Z,962.71
2022-08-02T03:18:13.278Z,962.74
2022-08-02T03:19:13.331Z,962.68
2022-08-02T03:20:13.312Z,962.69
2022-08-02T03:21:13.381Z,962.7
2022-08-02T03:22:13.684Z,962.74
2022-08-02T03:24:14.213Z,962.72
2022-08-02T03:25:13.351Z,962.73
2022-08-02T03:26:13.225Z,962.68
2022-08-02T03:27:13.382Z,962.67
2022-08-02T03:28:13.346Z,962.64
2022-08-02T03:29:13.326Z,962.66
2022-08-02T03:30:13.387Z,962.63
2022-08-02T03:31:13.352Z,962.67
2022-08-02T03:33:14.262Z,962.64
2022-08-02T03:34:13.362Z,962.66
2022-08-02T03:35:13.248Z,962.69
2022-08-02T03:36:13.394Z,962.68
2022-08-02T03:37:13.363Z,962.69
2022-08-02T03:38:13.326Z,962.65
2022-08-02T03:39:13.256Z,962.62
2022-08-02T03:40:13.462Z,962.58
2022-08-02T03:41:13.338Z,962.6
2022-08-02T03:42:15.348Z,962.54
2022-08-02T03:43:13.504Z,962.58
2022-08-02T03:44:13.267Z,962.54
2022-08-02T03:45:13.409Z,962.55
2022-08-02T03:46:13.371Z,962.53
2022-08-02T03:47:13.279Z,962.52
2022-08-02T03:49:13.407Z,962.51
2022-08-02T03:50:13.368Z,962.52
2022-08-02T03:51:13.420Z,962.53
2022-08-02T03:52:13.601Z,962.52
2022-08-02T03:53:20.117Z,962.48
2022-08-02T03:54:13.360Z,962.47
2022-08-02T03:55:13.402Z,962.48
2022-08-02T03:56:13.462Z,962.47
2022-08-02T03:58:13.397Z,962.48
2022-08-02T03:59:14.434Z,962.49
2022-08-02T04:02:14.631Z,962.47
2022-08-02T04:03:13.325Z,962.55
2022-08-02T04:04:13.526Z,962.51
2022-08-02T04:06:13.443Z,962.52
2022-08-02T04:07:13.406Z,962.51
2022-08-02T04:08:34.796Z,962.52
2022-08-02T04:09:13.612Z,962.53
2022-08-02T04:11:13.586Z,962.55
2022-08-02T04:12:13.683Z,962.53
2022-08-02T04:13:13.411Z,962.51
2022-08-02T04:14:13.481Z,962.53
2022-08-02T04:15:13.469Z,962.57
2022-08-02T04:16:13.436Z,962.55
2022-08-02T04:17:13.485Z,962.49
2022-08-02T04:18:13.451Z,962.52
2022-08-02T04:19:14.614Z,962.53
2022-08-02T04:20:15.224Z,962.55
2022-08-02T04:21:13.460Z,962.58
2022-08-02T04:22:13.698Z,962.59
2022-08-02T04:24:13.446Z,962.61
2022-08-02T04:26:13.575Z,962.66
2022-08-02T04:27:19.855Z,962.69
2022-08-02T04:28:15.823Z,962.66
2022-08-02T04:29:13.613Z,962.71
2022-08-02T04:30:13.476Z,962.7
2022-08-02T04:31:13.447Z,962.72
2022-08-02T04:32:13.708Z,962.75
2022-08-02T04:33:13.479Z,962.74
2022-08-02T04:34:15.288Z,962.77
2022-08-02T04:35:20.812Z,962.8
2022-08-02T04:36:13.639Z,962.81
2022-08-02T04:37:13.400Z,962.83
2022-08-02T04:38:13.519Z,962.84
2022-08-02T04:39:13.489Z,962.83
2022-08-02T04:40:13.572Z,962.84
2022-08-02T04:41:13.522Z,962.88
2022-08-02T04:42:13.804Z,962.86
2022-08-02T04:44:13.531Z,962.85
2022-08-02T04:45:16.630Z,962.86
2022-08-02T04:46:13.579Z,962.85
2022-08-02T04:47:13.426Z,962.84
2022-08-02T04:48:13.504Z,962.85
2022-08-02T04:50:13.527Z,962.89
2022-08-02T04:52:13.858Z,962.91
2022-08-02T04:53:13.541Z,962.9
2022-08-02T04:54:13.613Z,962.91
2022-08-02T04:56:13.541Z,962.95
2022-08-02T04:57:14.763Z,962.97
2022-08-02T04:58:37.277Z,962.95
2022-08-02T04:59:13.703Z,962.99
2022-08-02T05:00:14.872Z,963.02
2022-08-02T05:01:13.517Z,963
2022-08-02T05:02:13.667Z,963.02
2022-08-02T05:04:13.660Z,963.07
2022-08-02T05:05:13.566Z,963.06
2022-08-02T05:06:18.641Z,963.1
2022-08-02T05:07:13.596Z,963.11
2022-08-02T05:08:13.564Z,963.1
2022-08-02T05:09:13.709Z,963.08
2022-08-02T05:10:13.601Z,963.11
2022-08-02T05:11:13.557Z,963.1
2022-08-02T05:12:13.777Z,963.11
2022-08-02T05:13:13.600Z,963.09
2022-08-02T05:14:13.569Z,963.1
2022-08-02T05:15:13.656Z,963.09
2022-08-02T05:17:13.569Z,963.12
2022-08-02T05:18:13.503Z,963.06
2022-08-02T05:19:13.610Z,963.07
2022-08-02T05:20:13.517Z,963.08
2022-08-02T05:21:13.506Z,963.07
2022-08-02T05:22:13.991Z,963.05
2022-08-02T05:23:13.572Z,963.07
2022-08-02T05:24:13.672Z,963.05
2022-08-02T05:25:13.513Z,963.09
2022-08-02T05:26:13.587Z,963.08
2022-08-02T05:27:16.410Z,963.07
2022-08-02T05:28:13.745Z,963.06
2022-08-02T05:29:13.683Z,963.08
2022-08-02T05:30:13.544Z,963.1
2022-08-02T05:31:13.716Z,963.07
2022-08-02T05:32:13.653Z,963.09
2022-08-02T05:33:13.665Z,963.12
2022-08-02T05:34:13.629Z,963.1
2022-08-02T05:35:13.709Z,963.14
2022-08-02T05:37:13.548Z,963.16
2022-08-02T05:38:13.605Z,963.14
2022-08-02T05:39:15.061Z,963.2
2022-08-02T05:40:13.766Z,963.19
2022-08-02T05:41:15.171Z,963.18
2022-08-02T05:42:13.805Z,963.17
2022-08-02T05:44:13.628Z,963.16
2022-08-02T05:46:13.639Z,963.15
2022-08-02T05:47:13.608Z,963.11
2022-08-02T05:48:13.575Z,963.15
2022-08-02T05:49:13.691Z,963.11
2022-08-02T05:50:13.577Z,963.1
2022-08-02T05:51:13.682Z,963.11
2022-08-02T05:53:13.717Z,963.12
2022-08-02T05:54:13.580Z,963.11
2022-08-02T05:56:17.642Z,963.12
2022-08-02T05:57:13.704Z,963.1
2022-08-02T05:58:13.661Z,963.14
2022-08-02T06:00:13.700Z,963.1
2022-08-02T06:01:13.637Z,963.14
2022-08-02T06:02:14.107Z,963.15
2022-08-02T06:03:13.717Z,963.11
2022-08-02T06:04:13.764Z,963.12
2022-08-02T06:05:13.741Z,963.13
2022-08-02T06:06:13.612Z,963.15
2022-08-02T06:07:13.701Z,963.17
2022-08-02T06:08:13.631Z,963.18
2022-08-02T06:09:13.713Z,963.19
2022-08-02T06:10:13.788Z,963.21
2022-08-02T06:12:13.979Z,963.23
2022-08-02T06:14:13.864Z,963.22
2022-08-02T06:15:13.805Z,963.23
2022-08-02T06:16:14.267Z,963.27
2022-08-02T06:17:13.758Z,963.26
2022-08-02T06:18:13.652Z,963.25
2022-08-02T06:20:13.870Z,963.24
2022-08-02T06:22:30.148Z,963.22
2022-08-02T06:22:30.526Z,963.21
2022-08-02T06:23:13.906Z,963.24
2022-08-02T06:24:13.733Z,963.22
2022-08-02T06:25:47.951Z,963.24
2022-08-02T06:26:13.832Z,963.21
2022-08-02T06:27:13.731Z,963.24
2022-08-02T06:28:14.840Z,963.22
2022-08-02T06:29:13.781Z,963.23
2022-08-02T06:30:13.683Z,963.2
2022-08-02T06:31:13.816Z,963.26
2022-08-02T06:32:14.109Z,963.21
2022-08-02T06:33:13.742Z,963.2
2022-08-02T06:34:13.808Z,963.21
2022-08-02T06:35:13.778Z,963.24
2022-08-02T06:36:13.763Z,963.25
2022-08-02T06:38:13.786Z,963.28
2022-08-02T06:39:13.851Z,963.24
2022-08-02T06:40:13.702Z,963.28
2022-08-02T06:41:14.020Z,963.35
2022-08-02T06:42:13.954Z,963.31
2022-08-02T06:43:13.721Z,963.34
2022-08-02T06:44:45.467Z,963.32
2022-08-02T06:45:13.903Z,963.29
2022-08-02T06:46:37.934Z,963.34
2022-08-02T06:47:14.005Z,963.32
2022-08-02T06:48:14.954Z,963.33
2022-08-02T06:49:13.849Z,963.3
2022-08-02T06:50:13.824Z,963.34
2022-08-02T06:51:13.878Z,963.35
2022-08-02T06:52:15.782Z,963.43
2022-08-02T06:53:14.004Z,963.59
2022-08-02T06:54:13.789Z,963.75
2022-08-02T06:55:13.752Z,963.78
2022-08-02T06:56:13.893Z,963.77
2022-08-02T06:57:15.028Z,963.76
2022-08-02T06:58:13.858Z,963.73
2022-08-02T06:59:13.746Z,963.74
2022-08-02T07:01:13.881Z,963.64
2022-08-02T07:02:14.076Z,963.69
2022-08-02T07:03:13.804Z,963.66
2022-08-02T07:04:14.832Z,963.7
2022-08-02T07:06:13.902Z,963.64
2022-08-02T07:07:13.782Z,963.6
2022-08-02T07:08:13.772Z,963.58
2022-08-02T07:09:21.481Z,963.54
2022-08-02T07:10:13.893Z,963.44
2022-08-02T07:11:13.827Z,963.45
2022-08-02T07:12:14.200Z,963.53
2022-08-02T07:13:14.035Z,963.52
2022-08-02T07:14:13.883Z,963.5
2022-08-02T07:15:13.810Z,963.51
2022-08-02T07:16:13.883Z,963.56
2022-08-02T07:17:13.941Z,963.53
2022-08-02T07:18:14.018Z,963.43
2022-08-02T07:19:13.987Z,963.35
2022-08-02T07:20:13.829Z,963.34
2022-08-02T07:21:13.910Z,963.38
2022-08-02T07:22:13.975Z,963.37
2022-08-02T07:23:13.953Z,963.35
2022-08-02T07:24:13.919Z,963.4
2022-08-02T07:25:13.879Z,963.38
2022-08-02T07:27:14.035Z,963.34
2022-08-02T07:28:19.647Z,963.38
2022-08-02T07:29:13.870Z,963.39
2022-08-02T07:30:13.841Z,963.4
2022-08-02T07:31:13.886Z,963.41
2022-08-02T07:32:14.166Z,963.43
2022-08-02T07:33:37.271Z,963.48
2022-08-02T07:34:14.043Z,963.52
2022-08-02T07:35:14.524Z,963.49
2022-08-02T07:36:16.762Z,963.47
2022-08-02T07:37:17.657Z,963.48
2022-08-02T07:38:14.106Z,963.56
2022-08-02T07:39:13.935Z,963.54
2022-08-02T07:40:14.995Z,963.5
2022-08-02T07:41:13.978Z,963.47
2022-08-02T07:42:14.283Z,963.5
2022-08-02T07:43:13.997Z,963.49
2022-08-02T07:44:13.973Z,963.56
2022-08-02T07:45:13.947Z,963.55
2022-08-02T07:46:13.934Z,963.54
2022-08-02T07:47:14.621Z,963.47
2022-08-02T07:48:13.878Z,963.54
2022-08-02T07:49:14.068Z,963.42
2022-08-02T07:50:14.003Z,963.41
2022-08-02T07:51:17.172Z,963.39
2022-08-02T07:52:14.197Z,963.4
2022-08-02T07:53:13.985Z,963.35
2022-08-02T07:54:16.843Z,963.36
2022-08-02T07:55:14.021Z,963.32
2022-08-02T07:56:14.003Z,963.23
2022-08-02T07:57:13.956Z,963.25
2022-08-02T07:58:13.967Z,963.18
2022-08-02T07:59:13.918Z,963.19
2022-08-02T08:01:13.988Z,963.11
2022-08-02T08:02:14.331Z,963.09
2022-08-02T08:03:13.975Z,963.16
2022-08-02T08:04:14.036Z,963.21
2022-08-02T08:05:14.005Z,963.22
2022-08-02T08:06:13.978Z,963.25
2022-08-02T08:07:13.927Z,963.22
2022-08-02T08:08:17.254Z,963.27
2022-08-02T08:09:14.257Z,963.24
2022-08-02T08:10:14.040Z,963.2
2022-08-02T08:11:14.057Z,963.16
2022-08-02T08:12:14.538Z,963.13
2022-08-02T08:13:14.049Z,963.17
2022-08-02T08:14:16.798Z,963.2
2022-08-02T08:15:13.987Z,963.1
2022-08-02T08:16:14.054Z,963.12
2022-08-02T08:17:13.940Z,963.15
2022-08-02T08:18:13.981Z,963.18
2022-08-02T08:19:14.051Z,963.15
2022-08-02T08:20:15.851Z,963.16
2022-08-02T08:21:14.152Z,963.17
2022-08-02T08:22:14.410Z,963.18
2022-08-02T08:23:14.024Z,963.16
2022-08-02T08:24:13.978Z,963.14
2022-08-02T08:26:15.713Z,963.1
2022-08-02T08:29:13.974Z,963.09
2022-08-02T08:30:13.990Z,963.1
2022-08-02T08:31:14.080Z,963.08
2022-08-02T08:32:16.541Z,963.06
2022-08-02T08:33:14.008Z,963.03
2022-08-02T08:34:14.084Z,962.99
2022-08-02T08:35:14.038Z,963.02
2022-08-02T08:36:14.117Z,963.01
2022-08-02T08:37:17.219Z,963.03
2022-08-02T08:38:13.998Z,963.08
2022-08-02T08:39:14.116Z,963.07
2022-08-02T08:40:14.083Z,963.11
2022-08-02T08:41:14.015Z,963.07
2022-08-02T08:42:14.547Z,963.09
2022-08-02T08:43:14.097Z,963.04
2022-08-02T08:44:14.176Z,963.08
2022-08-02T08:45:14.135Z,963.07
2022-08-02T08:46:14.022Z,963.03
2022-08-02T08:47:14.025Z,963.01
2022-08-02T08:48:14.232Z,962.94
2022-08-02T08:49:14.132Z,963
2022-08-02T08:50:19.041Z,963.01
2022-08-02T08:51:14.129Z,963.02
2022-08-02T08:52:14.511Z,963
2022-08-02T08:54:14.133Z,962.9
2022-08-02T08:55:14.102Z,962.85
2022-08-02T08:56:15.878Z,962.86
2022-08-02T08:57:14.147Z,962.81
2022-08-02T08:58:14.134Z,962.84
2022-08-02T08:59:14.101Z,962.82
2022-08-02T09:00:14.155Z,962.83
2022-08-02T09:01:14.293Z,962.85
2022-08-02T09:02:17.288Z,962.86
2022-08-02T09:03:14.243Z,962.84
2022-08-02T09:04:14.118Z,962.79
2022-08-02T09:05:14.088Z,962.81
2022-08-02T09:06:14.160Z,962.82
2022-08-02T09:07:14.092Z,962.84
2022-08-02T09:08:16.924Z,962.88
2022-08-02T09:09:14.160Z,962.85
2022-08-02T09:10:14.132Z,962.89
2022-08-02T09:11:14.194Z,962.92
2022-08-02T09:12:14.484Z,962.87
2022-08-02T09:13:30.892Z,962.88
2022-08-02T09:14:14.303Z,962.91
2022-08-02T09:15:15.984Z,962.9
2022-08-02T09:16:14.989Z,962.89
2022-08-02T09:17:14.099Z,962.87
2022-08-02T09:18:14.170Z,962.91
2022-08-02T09:19:14.159Z,962.88
2022-08-02T09:20:14.204Z,962.9
2022-08-02T09:21:14.186Z,962.92
2022-08-02T09:22:14.533Z,962.9
2022-08-02T09:23:14.117Z,962.89
2022-08-02T09:24:14.186Z,962.85
2022-08-02T09:25:14.168Z,962.88
2022-08-02T09:26:14.119Z,962.89
2022-08-02T09:27:14.178Z,962.9
2022-08-02T09:28:14.138Z,962.85
2022-08-02T09:29:14.136Z,962.88
2022-08-02T09:30:14.318Z,962.84
2022-08-02T09:31:14.327Z,962.85
2022-08-02T09:32:14.550Z,962.84
2022-08-02T09:33:14.188Z,962.78
2022-08-02T09:34:14.250Z,962.76
2022-08-02T09:35:14.219Z,962.77
2022-08-02T09:36:14.166Z,962.74
2022-08-02T09:37:14.266Z,962.77
2022-08-02T09:38:14.232Z,962.75
2022-08-02T09:39:14.195Z,962.76
2022-08-02T09:40:14.165Z,962.77
2022-08-02T09:41:14.346Z,962.75
2022-08-02T09:42:14.579Z,962.72
2022-08-02T09:43:14.272Z,962.73
2022-08-02T09:44:16.030Z,962.72
2022-08-02T09:46:14.290Z,962.74
2022-08-02T09:47:14.391Z,962.71
2022-08-02T09:48:14.217Z,962.69
2022-08-02T09:49:14.267Z,962.7
2022-08-02T09:50:15.121Z,962.68
2022-08-02T09:51:14.316Z,962.69
2022-08-02T09:52:14.505Z,962.74
2022-08-02T09:53:14.255Z,962.71
2022-08-02T09:54:14.337Z,962.72
2022-08-02T09:56:29.273Z,962.65
2022-08-02T09:57:14.404Z,962.63
2022-08-02T09:58:14.293Z,962.61
2022-08-02T09:59:14.267Z,962.57
2022-08-02T10:00:20.396Z,962.63
2022-08-02T10:01:14.492Z,962.6
2022-08-02T10:03:20.721Z,962.59
2022-08-02T10:04:17.323Z,962.58
2022-08-02T10:05:14.398Z,962.57
2022-08-02T10:07:14.427Z,962.52
2022-08-02T10:08:14.269Z,962.53
2022-08-02T10:09:14.342Z,962.59
2022-08-02T10:10:14.294Z,962.61
2022-08-02T10:11:14.241Z,962.54
2022-08-02T10:12:14.757Z,962.51
2022-08-02T10:13:14.313Z,962.39
2022-08-02T10:14:14.251Z,962.41
2022-08-02T10:15:14.260Z,962.37
2022-08-02T10:16:14.249Z,962.4
2022-08-02T10:17:14.291Z,962.41
2022-08-02T10:18:36.122Z,962.42
2022-08-02T10:19:14.325Z,962.47
2022-08-02T10:20:14.312Z,962.49
2022-08-02T10:21:14.275Z,962.46
2022-08-02T10:22:14.830Z,962.51
2022-08-02T10:23:14.287Z,962.49
2022-08-02T10:25:14.354Z,962.47
2022-08-02T10:26:14.291Z,962.44
2022-08-02T10:27:14.367Z,962.45
2022-08-02T10:28:16.568Z,962.4
2022-08-02T10:29:14.300Z,962.33
2022-08-02T10:30:14.316Z,962.3
2022-08-02T10:31:14.328Z,962.24
2022-08-02T10:32:14.728Z,962.25
2022-08-02T10:33:14.310Z,962.29
2022-08-02T10:35:19.262Z,962.3
2022-08-02T10:36:14.512Z,962.28
2022-08-02T10:37:14.826Z,962.27
2022-08-02T10:38:14.411Z,962.29
2022-08-02T10:39:14.382Z,962.26
2022-08-02T10:40:14.341Z,962.22
2022-08-02T10:41:14.314Z,962.23
2022-08-02T10:43:14.363Z,962.13
2022-08-02T10:47:15.037Z,962.15
2022-08-02T10:48:14.400Z,962.2
2022-08-02T10:49:37.813Z,962.19
2022-08-02T10:50:14.396Z,962.18
2022-08-02T10:51:14.421Z,962.19
2022-08-02T10:52:14.729Z,962.17
2022-08-02T10:53:14.433Z,962.13
2022-08-02T10:54:14.498Z,962.08
2022-08-02T10:55:14.656Z,962.12
2022-08-02T10:56:14.577Z,962.09
2022-08-02T10:57:15.283Z,962.08
2022-08-02T10:58:14.470Z,962.05
2022-08-02T10:59:14.442Z,962.03
2022-08-02T11:00:17.232Z,962.02
2022-08-02T11:01:14.528Z,962.03
2022-08-02T11:03:14.501Z,962.05
2022-08-02T11:05:14.379Z,962.09
2022-08-02T11:06:24.817Z,962.11
2022-08-02T11:08:14.427Z,962.13
2022-08-02T11:09:14.526Z,962.11
2022-08-02T11:10:14.485Z,962.13
2022-08-02T11:12:14.760Z,962.14
2022-08-02T11:13:14.486Z,962.12
2022-08-02T11:14:14.564Z,962.09
2022-08-02T11:15:14.526Z,962.06
2022-08-02T11:17:14.431Z,962.01
2022-08-02T11:18:14.553Z,962.02
2022-08-02T11:19:14.415Z,961.99
2022-08-02T11:20:15.639Z,961.98
2022-08-02T11:21:14.542Z,961.97
2022-08-02T11:22:14.770Z,961.93
2022-08-02T11:23:14.665Z,961.88
2022-08-02T11:24:14.429Z,961.93
2022-08-02T11:25:14.515Z,961.95
2022-08-02T11:26:14.441Z,961.96
2022-08-02T11:28:14.510Z,961.98
2022-08-02T11:29:15.737Z,962.01
2022-08-02T11:31:14.457Z,962.04
2022-08-02T11:32:14.821Z,962.01
2022-08-02T11:33:14.453Z,962.04
2022-08-02T11:34:37.142Z,962.05
2022-08-02T11:35:14.591Z,962.02
2022-08-02T11:36:14.464Z,961.99
2022-08-02T11:37:14.611Z,961.94
2022-08-02T11:38:14.486Z,961.93
2022-08-02T11:39:15.739Z,961.9
2022-08-02T11:40:19.258Z,961.94
2022-08-02T11:42:14.771Z,961.91
2022-08-02T11:43:14.478Z,961.92
2022-08-02T11:44:14.595Z,961.9
2022-08-02T11:45:20.934Z,961.91
2022-08-02T11:46:14.501Z,961.9
2022-08-02T11:47:14.589Z,961.87
2022-08-02T11:48:14.565Z,961.89
2022-08-02T11:49:14.542Z,961.79
2022-08-02T11:51:14.566Z,961.82
2022-08-02T11:52:14.899Z,961.73
2022-08-02T11:53:14.612Z,961.69
2022-08-02T11:57:18.643Z,961.65
2022-08-02T11:58:19.081Z,961.68
2022-08-02T11:59:14.785Z,961.72
2022-08-02T12:00:14.528Z,961.6
2022-08-02T12:01:14.649Z,961.57
2022-08-02T12:02:14.894Z,961.58
2022-08-02T12:03:17.866Z,961.61
2022-08-02T12:04:14.658Z,961.65
2022-08-02T12:05:14.624Z,961.66
2022-08-02T12:07:14.958Z,961.6
2022-08-02T12:08:14.682Z,961.63
2022-08-02T12:09:17.820Z,961.69
2022-08-02T12:10:16.953Z,961.73
2022-08-02T12:12:14.823Z,961.72
2022-08-02T12:13:14.666Z,961.77
2022-08-02T12:14:14.584Z,961.78
2022-08-02T12:15:14.565Z,961.75
2022-08-02T12:16:14.680Z,961.74
2022-08-02T12:17:14.636Z,961.73
2022-08-02T12:18:14.623Z,961.76
2022-08-02T12:19:14.573Z,961.79
2022-08-02T12:20:14.649Z,961.77
2022-08-02T12:21:14.626Z,961.81
2022-08-02T12:22:14.826Z,961.76
2022-08-02T12:23:14.599Z,961.71
2022-08-02T12:24:14.710Z,961.65
2022-08-02T12:25:14.583Z,961.71
2022-08-02T12:26:15.831Z,961.66
2022-08-02T12:27:14.602Z,961.69
2022-08-02T12:28:17.487Z,961.65
2022-08-02T12:29:14.756Z,961.57
2022-08-02T12:31:14.734Z,961.62
2022-08-02T12:32:14.801Z,961.6
2022-08-02T12:33:14.632Z,961.55
2022-08-02T12:34:14.694Z,961.52
2022-08-02T12:35:14.703Z,961.61
2022-08-02T12:36:14.785Z,961.66
2022-08-02T12:37:14.635Z,961.64
2022-08-02T12:38:14.658Z,961.66
2022-08-02T12:39:14.729Z,961.59
2022-08-02T12:40:14.624Z,961.48
2022-08-02T12:41:30.740Z,961.47
2022-08-02T12:42:15.506Z,961.43
2022-08-02T12:43:14.776Z,961.47
2022-08-02T12:44:14.774Z,961.52
2022-08-02T12:45:14.738Z,961.49
2022-08-02T12:46:14.705Z,961.57
2022-08-02T12:47:14.658Z,961.49
2022-08-02T12:48:14.741Z,961.56
2022-08-02T12:49:18.168Z,961.57
2022-08-02T12:50:14.785Z,961.56
2022-08-02T12:51:14.735Z,961.57
2022-08-02T12:52:14.882Z,961.56
2022-08-02T12:53:14.795Z,961.53
2022-08-02T12:54:17.736Z,961.54
2022-08-02T12:55:14.739Z,961.51
2022-08-02T12:57:14.794Z,961.49
2022-08-02T12:59:14.688Z,961.38
2022-08-02T13:00:14.762Z,961.3
2022-08-02T13:01:14.794Z,961.19
2022-08-02T13:02:14.938Z,961.21
2022-08-02T13:04:08.280Z,961.27
2022-08-02T13:05:14.874Z,961.32
2022-08-02T13:06:29.671Z,961.33
2022-08-02T13:07:14.833Z,961.37
2022-08-02T13:08:14.807Z,961.4
2022-08-02T13:09:14.787Z,961.35
2022-08-02T13:10:14.715Z,961.34
2022-08-02T13:11:14.806Z,961.32
2022-08-02T13:12:15.177Z,961.35
2022-08-02T13:13:14.843Z,961.3
2022-08-02T13:14:14.922Z,961.27
2022-08-02T13:15:46.398Z,961.24
2022-08-02T13:16:14.739Z,961.16
2022-08-02T13:17:14.825Z,961.09
2022-08-02T13:18:14.730Z,961.11
2022-08-02T13:19:14.858Z,961.03
2022-08-02T13:20:14.815Z,961
2022-08-02T13:21:15.395Z,960.95
2022-08-02T13:22:14.922Z,960.98
2022-08-02T13:24:17.703Z,960.97
2022-08-02T13:25:14.998Z,961.07
2022-08-02T13:26:14.834Z,961.11
2022-08-02T13:27:14.773Z,961.15
2022-08-02T13:28:14.865Z,961.18
2022-08-02T13:29:14.824Z,961.2
2022-08-02T13:30:15.697Z,961.23
2022-08-02T13:31:34.402Z,961.2
2022-08-02T13:32:15.135Z,961.26
2022-08-02T13:33:14.769Z,961.24
2022-08-02T13:34:14.784Z,961.28
2022-08-02T13:35:17.810Z,961.3
2022-08-02T13:36:14.774Z,961.31
2022-08-02T13:37:14.884Z,961.29
2022-08-02T13:38:14.820Z,961.21
2022-08-02T13:39:14.783Z,961.23
2022-08-02T13:40:22.511Z,961.22
2022-08-02T13:41:14.993Z,961.18
2022-08-02T13:42:16.018Z,961.22
2022-08-02T13:43:14.799Z,961.19
2022-08-02T13:44:14.954Z,961.17
2022-08-02T13:45:14.908Z,961.14
2022-08-02T13:47:14.860Z,961.16
2022-08-02T13:48:16.912Z,961.14
2022-08-02T13:49:18.714Z,961.12
2022-08-02T13:50:15.014Z,961.09
2022-08-02T13:51:15.039Z,961.04
2022-08-02T13:52:15.274Z,961.09
2022-08-02T13:53:14.858Z,961.12
2022-08-02T13:54:14.945Z,961.15
2022-08-02T13:56:14.829Z,961.09
2022-08-02T13:58:14.842Z,961.1
2022-08-02T13:59:22.091Z,961.05
2022-08-02T14:00:14.967Z,961.04
2022-08-02T14:01:15.018Z,961.07
2022-08-02T14:02:15.315Z,961.04
2022-08-02T14:04:14.858Z,961.02
2022-08-02T14:05:14.850Z,961.06
2022-08-02T14:07:14.918Z,961.1
2022-08-02T14:08:16.770Z,961.09
2022-08-02T14:09:15.748Z,961.04
2022-08-02T14:10:15.019Z,961.03